Terminal Aerodrome Forecast
Issued by NWS Sterling, VA

Home | Current Version | Previous Version | Text Only | Print | Product List | Glossary On
Versions: 1 2 3 4 5 6 7 8 9 10 11 12 13 14 15 16 17 18 19 20 21 22
000
FTUS41 KLWX 271100
TAFBWI
TAF
KBWI 271139Z 2712/2818 VRB03KT P6SM SCT025 BKN050
     FM271500 31006KT P6SM OVC050
     FM272100 31008KT P6SM BKN050
     FM280400 30008KT P6SM SCT050
     FM281400 31013KT P6SM FEW050=

USA.gov is the U.S. government's official web portal to all federal, state and local government web resources and services.